News    GLOBAL    TV    HD    3D    Ultra HD    Radio    Data    Temp.FTA    [-]    Открытый

Подгонка и Список Европейских Спутников
Поиск Каналов:
Astra 2G (28.2°E) Транспордер 95
26.0E>
<30.5E

Орбитальное положение Спутник Norad .ini News каналы Только Бесплатные Longitude Declination now Max declination Azimuth Elevation Последние обновления
28.2°E Astra 2E 39285 385 200 28.49°E -0.02° 0.06° N/A N/A 2023-02-04 07:41
28.2°E Astra 2F 38778 135 64 28.16°E 0.08° 0.09° N/A N/A 2023-02-04 07:41
28.2°E Astra 2G 40364 285 195 28.16°E 0.01° 0.05° N/A N/A 2023-02-02 19:15

Сортировка по: Кодировка: Режим отображения:

32 запись(и/ей) - Сортировка по частоте - Последние обновления: CET

Pos Satellite Frequence Pol Txp Beam Standard Modulation SR/FEC Network, bitrate NID TID
28.2°E 32Astra 2G 11552.75H95EuropeDVB-SQPSK22000 5/633.8 Mb/s 22095 KingOfSat charts update form
Craft Extra
Англия Телемагазин Sky Digital Открытый 9537 2332 2333 eng  305  2332    2022-03-07 +
Jewellery Channel
Англия Телемагазин Sky Digital Открытый 55100 2346 2347 eng  267  2346    2020-09-12 +
High Street TV 2 Англия Телемагазин Sky Digital Открытый 55102 2352 2353 eng  273  2352    2018-02-01 +
Good News TV Южная Африка (ЮАР) Религия Sky Digital Открытый 55103 2326 2327 eng  284  2326    2019-05-30 +
High Street TV 3
Англия Телемагазин Sky Digital Открытый 55104 2338 2339 eng  266  2338    2021-11-02 +
NTD TV (New Tang Dynasty TV) США Общее Sky Digital Открытый 55106 2306 2307 eng  257  2306    2021-02-22 +
Noor TV Англия Религия Sky Digital Открытый 55109 2355 2356 eng  264  2355    2015-08-19 +
Clubland TV
Англия Музыка Sky Digital Открытый 55113 2557 2558 eng  256  2557    2015-08-19 +
Now Rock Англия Музыка Sky Digital Открытый 55114 2560 2561 eng  261  2560    2022-12-27 +
NDTV 24x7 Индия Новости Sky Digital Открытый 55116 2360 2361 eng  269  2360    2015-08-19 +

SonLife Broadcasting Network Англия Религия Sky Digital Открытый 55120 2331 2329 esp
2330 eng 
277  2331  2328  2021-10-30 +
Channels 24 Нигерия Новости Sky Digital Открытый 55141 2348 2349 eng  262  2348    2020-09-12 +
HUM Masala Англия Entertainment Sky Digital Открытый 55146 2343 2342 eng  281  2343    2021-10-30 +
PTV Global Пакистан Общее Sky Digital Открытый 55151 2335 2337 urd  259  2335    2020-04-07 +
Hum Europe Пакистан Общее Sky Digital Открытый 55181 2341 2340 urd  285  2341    2021-10-30 +
Deen TV Англия Религия Sky Digital Открытый 55185 2314 2315 eng  260  2314    2021-02-23 +
Capital XTRA Freesat
Sky Digital
Открытый 9549   2320 eng  313  2320    2015-08-19
Radio X Freesat
Sky Digital
Открытый 9559   2316 eng  318  2316    2015-09-14
Capital Freesat
Sky Digital
Открытый 9560   2318 eng  319  2318    2016-09-26
Gold Freesat
Sky Digital
Открытый 9561   2310  258  2310    2015-08-19
Khushkhabri Sky Digital Открытый 9563   2336  320  2336    2015-08-19
Classic FM Freesat
Sky Digital
Открытый 9570   2344 eng  263  2344    2015-08-19
Planet Rock Freesat
Sky Digital
Открытый 9575   2345 eng  268  2345    2015-08-19
LBC News Sky Digital Открытый 55131   2334  282  2334    2020-01-09
Smooth Sky Digital Открытый 55132   2312  270  2312    2015-08-19
Heart Dance Sky Digital Открытый 55133   2311 eng  271  2311    2019-10-07
Hits Radio Sky Digital Открытый 55134   2313 eng  276  2313    2018-08-23
Virgin Radio Италия Музыка Sky Digital Открытый 55135   2321 eng  278  2321    2019-01-08 +
TWR Sky Digital Открытый 55136   2322  280  2322    2019-03-01
Jazz FM Sky Digital Открытый 55137   2324 eng  283  2324    2019-05-01
Greatest Hits Англия Музыка Sky Digital Открытый 55138   2323 eng  279  2323    2022-12-16 +
Heart 90s Sky Digital Открытый 55139   2325 eng  265  2325    2019-11-13

Detailed transponder stream properties (11552.75 H)

SID Ident. PID Format Colorimetry Width Height Aspect Ratio Frame rate
Sampling rate
Bitrate mode Bitrate Scan type Последние обновления
9537 2332 MPEG Video Main, Main 4:2:0 544 576 1.778 25.000 FPS VBR Interlaced 2023-02-06
9537 2333 MPEG Audio, Layer 22 channels 48000 CBR 128000 2023-02-06
9549 2320 MPEG Audio, Layer 22 channels 48000 CBR 160000 2023-02-06
9559 2316 MPEG Audio, Layer 22 channels 48000 CBR 160000 2023-02-06
9560 2318 MPEG Audio, Layer 22 channels 48000 CBR 160000 2023-02-06
9561 2310 MPEG Audio, Layer 22 channels 48000 CBR 160000 2023-02-06
9563 2336 MPEG Audio, Layer 21 channel 48000 CBR 96000 2023-02-06
9570 2344 MPEG Audio, Layer 22 channels 48000 CBR 192000 2023-02-06
9575 2345 MPEG Audio, Layer 22 channels 48000 CBR 160000 2023-02-06
55100 2346 MPEG Video Main, Main 4:2:0 720 576 1.778 25.000 FPS VBR Interlaced 2023-02-06
55100 2347 MPEG Audio, Layer 22 channels 48000 CBR 192000 2023-02-06
55102 2352 MPEG Video Main, Main 4:2:0 544 576 1.778 25.000 FPS VBR Interlaced 2023-02-06
55102 2353 MPEG Audio, Layer 22 channels 48000 CBR 128000 2023-02-06
55103 2326 MPEG Video Main, Main 4:2:0 544 576 1.778 25.000 FPS VBR Interlaced 2023-02-06
55103 2327 MPEG Audio, Layer 22 channels 48000 CBR 128000 2023-02-06
55104 2338 MPEG Video Main, Main 4:2:0 544 576 1.778 25.000 FPS VBR Interlaced 2023-02-06
55104 2339 MPEG Audio, Layer 22 channels 48000 CBR 128000 2023-02-06
55106 2306 MPEG Video Main, Main 4:2:0 544 576 1.778 25.000 FPS VBR Interlaced 2023-02-06
55106 2307 MPEG Audio, Layer 22 channels 48000 CBR 128000 2023-02-06
55109 2355 MPEG Video Main, Main 4:2:0 544 576 1.778 25.000 FPS VBR Interlaced 2023-02-06
55109 2356 MPEG Audio, Layer 22 channels 48000 CBR 128000 2023-02-06
55113 2557 MPEG Video Main, Main 4:2:0 544 576 1.778 25.000 FPS VBR Interlaced 2023-02-06
55113 2558 MPEG Audio, Layer 22 channels 48000 CBR 192000 2023-02-06
55114 2560 MPEG Video Main, Main 4:2:0 544 576 1.778 25.000 FPS VBR Interlaced 2023-02-06
55114 2561 MPEG Audio, Layer 22 channels 48000 CBR 192000 2023-02-06
55116 2360 MPEG Video Main, Main 4:2:0 544 576 1.333 25.000 FPS VBR Interlaced 2023-02-06
55116 2361 MPEG Audio, Layer 22 channels 48000 CBR 128000 2023-02-06
55120 2328 Teletext 2023-02-06
55120 2329 MPEG Audio, Layer 22 channels 48000 CBR 128000 2023-02-06
55120 2330 MPEG Audio, Layer 22 channels 48000 CBR 128000 2023-02-06
55120 2331 MPEG Video Main, Main 4:2:0 544 576 1.778 25.000 FPS VBR Interlaced 2023-02-06
55131 2334 MPEG Audio, Layer 22 channels 48000 CBR 128000 2023-02-06
55132 2312 MPEG Audio, Layer 22 channels 48000 CBR 160000 2023-02-06
55133 2311 MPEG Audio, Layer 22 channels 48000 CBR 160000 2023-02-06
55134 2313 MPEG Audio, Layer 22 channels 48000 CBR 160000 2023-02-06
55135 2321 MPEG Audio, Layer 22 channels 48000 CBR 192000 2023-02-06
55136 2322 MPEG Audio, Layer 21 channel 48000 CBR 64000 2023-02-06
55137 2324 MPEG Audio, Layer 22 channels 48000 CBR 160000 2023-02-06
55138 2323 MPEG Audio, Layer 22 channels 48000 CBR 192000 2023-02-06
55139 2325 MPEG Audio, Layer 22 channels 48000 CBR 160000 2023-02-06
55141 2348 MPEG Video Main, Main 4:2:0 544 576 1.778 25.000 FPS VBR Interlaced 2023-02-06
55141 2349 MPEG Audio, Layer 22 channels 48000 CBR 128000 2023-02-06
55146 2342 MPEG Audio, Layer 22 channels 48000 CBR 192000 2023-02-06
55146 2343 MPEG Video Main, Main 4:2:0 544 576 1.333 25.000 FPS VBR Interlaced 2023-02-06
55151 2335 MPEG Video Main, Main 4:2:0 544 576 1.333 25.000 FPS VBR Interlaced 2023-02-06
55151 2337 MPEG Audio, Layer 22 channels 48000 CBR 128000 2023-02-06
55181 2340 MPEG Audio, Layer 22 channels 48000 CBR 128000 2023-02-06
55181 2341 MPEG Video Main, Main 4:2:0 544 576 1.333 25.000 FPS VBR Interlaced 2023-02-06
55185 2314 MPEG Video Main, Main 4:2:0 720 576 1.778 25.000 FPS VBR Interlaced 2023-02-06
55185 2315 MPEG Audio, Layer 22 channels 48000 CBR 128000 2023-02-06

Ваши Комментарии/Обновления

Легенда

8K - Ultra HD

4K - Ultra HD

Высокая Четкость

Широкоэкранный

     

Video: MPEG-4/AVC/H-264

     

Video: MPEG-H/HEVC/H-265

     

Video: MPEG-I/VVC/H-266

     

Открытый

     

Encrypted

Отображение картинки

3D

Прямые Эфиры

+

Изменения регистрации

     

DVB-S

     

DVB-S2

     

DVB-S2X


ПРОФИЛЬ - ИНДЕКС - НОВОСТИ - СПУТНИКИ - Пакеты - КАНАЛЫ - ПОИСК - ЗОНЫ ОХВАТА ВЕЩАНИЯ - ПОДАЧИ - КЛАДБИЩЕ - Ваши Комментарии/Обновления

All contents on this site are protected by copyright and owned by KingOfSat, except contents shown in some screenshots that belong to their respective owners. Screenshots are only proposed to help illustrating, identifying and promoting corresponding TV channels. For all questions/remarks related to copyright, please contact KingOfSat webmaster.